Terminal Aerodrome Forecast
Issued by NWS Blacksburg, VA

Home | Current Version | Previous Version | Text Only | Print | Product List | Glossary On
Versions: 1 2 3 4 5 6 7 8 9 10 11 12 13
000
FTUS41 KRNK 261138
TAFDAN
TAF
KDAN 261138Z 2612/2712 00000KT P6SM BKN110 BKN250
     FM261400 22006KT P6SM BKN110 BKN250
     FM261900 22007KT P6SM BKN060 BKN250
     FM270200 00000KT P6SM SCT070 BKN110 BKN250=

USA.gov is the U.S. government's official web portal to all federal, state and local government web resources and services.